sensor_id;sensor_type;location;lat;lon;timestamp;temperature;humidity
40816;DHT22;26535;48.788;9.214;2023-03-14T00:00:08;9.60;99.90
40816;DHT22;26535;48.788;9.214;2023-03-14T00:02:35;9.70;99.90
40816;DHT22;26535;48.788;9.214;2023-03-14T00:05:01;9.70;99.90
40816;DHT22;26535;48.788;9.214;2023-03-14T00:07:33;9.60;99.90
40816;DHT22;26535;48.788;9.214;2023-03-14T00:10:02;9.60;99.90
40816;DHT22;26535;48.788;9.214;2023-03-14T00:12:30;9.60;99.90
40816;DHT22;26535;48.788;9.214;2023-03-14T00:14:55;9.60;99.90
40816;DHT22;26535;48.788;9.214;2023-03-14T00:17:21;9.60;99.90
40816;DHT22;26535;48.788;9.214;2023-03-14T00:19:46;9.60;99.90
40816;DHT22;26535;48.788;9.214;2023-03-14T00:22:12;9.60;99.90
40816;DHT22;26535;48.788;9.214;2023-03-14T00:24:38;9.60;99.90
40816;DHT22;26535;48.788;9.214;2023-03-14T00:27:04;9.60;99.90
40816;DHT22;26535;48.788;9.214;2023-03-14T00:29:29;9.60;99.90
40816;DHT22;26535;48.788;9.214;2023-03-14T06:02:37;9.60;99.90
40816;DHT22;26535;48.788;9.214;2023-03-14T06:05:12;9.70;99.90
40816;DHT22;26535;48.788;9.214;2023-03-14T06:07:38;9.70;99.90
40816;DHT22;26535;48.788;9.214;2023-03-14T06:10:05;9.60;99.90
40816;DHT22;26535;48.788;9.214;2023-03-14T06:12:31;9.60;99.90
40816;DHT22;26535;48.788;9.214;2023-03-14T06:14:57;9.50;99.90
40816;DHT22;26535;48.788;9.214;2023-03-14T06:17:23;9.50;99.90
40816;DHT22;26535;48.788;9.214;2023-03-14T06:19:55;9.50;99.90
40816;DHT22;26535;48.788;9.214;2023-03-14T06:22:22;9.50;99.90
40816;DHT22;26535;48.788;9.214;2023-03-14T06:24:48;9.60;99.90
40816;DHT22;26535;48.788;9.214;2023-03-14T06:27:15;9.60;99.90
40816;DHT22;26535;48.788;9.214;2023-03-14T06:29:41;9.70;99.90
40816;DHT22;26535;48.788;9.214;2023-03-14T06:32:07;9.70;99.90
40816;DHT22;26535;48.788;9.214;2023-03-14T06:34:33;9.70;99.90
40816;DHT22;26535;48.788;9.214;2023-03-14T06:36:58;9.70;99.90
40816;DHT22;26535;48.788;9.214;2023-03-14T06:39:25;9.70;99.90
40816;DHT22;26535;48.788;9.214;2023-03-14T06:42:00;9.80;99.90
40816;DHT22;26535;48.788;9.214;2023-03-14T06:44:25;9.90;99.90
40816;DHT22;26535;48.788;9.214;2023-03-14T06:46:51;10.00;99.90
40816;DHT22;26535;48.788;9.214;2023-03-14T06:49:17;10.00;99.90
40816;DHT22;26535;48.788;9.214;2023-03-14T06:51:44;10.00;99.90
40816;DHT22;26535;48.788;9.214;2023-03-14T06:54:10;10.10;99.90
40816;DHT22;26535;48.788;9.214;2023-03-14T06:56:36;10.10;99.90
40816;DHT22;26535;48.788;9.214;2023-03-14T06:59:02;10.10;99.90
40816;DHT22;26535;48.788;9.214;2023-03-14T07:01:31;10.20;99.90
40816;DHT22;26535;48.788;9.214;2023-03-14T07:04:11;10.30;99.90
40816;DHT22;26535;48.788;9.214;2023-03-14T07:06:40;10.60;99.90
40816;DHT22;26535;48.788;9.214;2023-03-14T07:09:13;10.80;99.90
40816;DHT22;26535;48.788;9.214;2023-03-14T07:11:44;11.00;99.90
40816;DHT22;26535;48.788;9.214;2023-03-14T07:14:10;11.20;99.90
40816;DHT22;26535;48.788;9.214;2023-03-14T07:16:35;11.20;99.90
40816;DHT22;26535;48.788;9.214;2023-03-14T07:19:02;11.20;99.90
40816;DHT22;26535;48.788;9.214;2023-03-14T07:21:28;11.40;99.90
40816;DHT22;26535;48.788;9.214;2023-03-14T07:23:54;11.40;99.90
40816;DHT22;26535;48.788;9.214;2023-03-14T07:26:21;11.60;99.90
40816;DHT22;26535;48.788;9.214;2023-03-14T07:28:50;11.70;99.90
40816;DHT22;26535;48.788;9.214;2023-03-14T07:31:18;11.70;99.90
40816;DHT22;26535;48.788;9.214;2023-03-14T07:33:44;11.80;99.90
40816;DHT22;26535;48.788;9.214;2023-03-14T07:36:10;11.90;99.90
40816;DHT22;26535;48.788;9.214;2023-03-14T07:38:37;12.00;99.90
40816;DHT22;26535;48.788;9.214;2023-03-14T07:41:31;12.00;99.90
40816;DHT22;26535;48.788;9.214;2023-03-14T07:44:16;12.20;99.90
40816;DHT22;26535;48.788;9.214;2023-03-14T07:46:41;12.30;99.90
40816;DHT22;26535;48.788;9.214;2023-03-14T07:49:07;12.30;99.90
40816;DHT22;26535;48.788;9.214;2023-03-14T07:51:33;12.50;99.90
40816;DHT22;26535;48.788;9.214;2023-03-14T07:53:58;12.50;99.90
40816;DHT22;26535;48.788;9.214;2023-03-14T07:56:24;12.60;99.90
40816;DHT22;26535;48.788;9.214;2023-03-14T07:58:50;12.50;99.90
40816;DHT22;26535;48.788;9.214;2023-03-14T08:01:16;12.60;99.90
40816;DHT22;26535;48.788;9.214;2023-03-14T08:03:41;12.70;99.90
40816;DHT22;26535;48.788;9.214;2023-03-14T08:06:07;12.70;99.90
40816;DHT22;26535;48.788;9.214;2023-03-14T08:08:33;12.70;99.90
40816;DHT22;26535;48.788;9.214;2023-03-14T08:11:03;12.70;99.90
40816;DHT22;26535;48.788;9.214;2023-03-14T08:13:29;12.80;99.90
40816;DHT22;26535;48.788;9.214;2023-03-14T08:15:55;12.90;99.60
40816;DHT22;26535;48.788;9.214;2023-03-14T08:18:21;13.00;99.60
40816;DHT22;26535;48.788;9.214;2023-03-14T08:20:46;13.10;99.00
40816;DHT22;26535;48.788;9.214;2023-03-14T08:23:12;13.20;98.70
40816;DHT22;26535;48.788;9.214;2023-03-14T08:25:38;13.20;98.50
40816;DHT22;26535;48.788;9.214;2023-03-14T08:28:04;13.20;98.20
40816;DHT22;26535;48.788;9.214;2023-03-14T08:30:30;13.20;98.30
40816;DHT22;26535;48.788;9.214;2023-03-14T08:32:58;13.40;98.20
40816;DHT22;26535;48.788;9.214;2023-03-14T08:35:25;13.50;97.60
40816;DHT22;26535;48.788;9.214;2023-03-14T08:37:51;13.70;97.40
40816;DHT22;26535;48.788;9.214;2023-03-14T08:40:18;13.90;96.70
40816;DHT22;26535;48.788;9.214;2023-03-14T08:42:44;14.00;96.30
40816;DHT22;26535;48.788;9.214;2023-03-14T08:45:12;14.30;96.00
40816;DHT22;26535;48.788;9.214;2023-03-14T08:47:38;14.30;95.00
40816;DHT22;26535;48.788;9.214;2023-03-14T08:50:04;14.30;94.90
40816;DHT22;26535;48.788;9.214;2023-03-14T08:52:30;14.30;94.30
40816;DHT22;26535;48.788;9.214;2023-03-14T08:54:57;13.90;94.50
40816;DHT22;26535;48.788;9.214;2023-03-14T08:57:23;13.80;94.80
40816;DHT22;26535;48.788;9.214;2023-03-14T08:59:53;13.80;95.00
40816;DHT22;26535;48.788;9.214;2023-03-14T09:02:20;14.00;94.90
40816;DHT22;26535;48.788;9.214;2023-03-14T09:04:46;13.80;94.70
40816;DHT22;26535;48.788;9.214;2023-03-14T09:07:12;14.10;94.80
40816;DHT22;26535;48.788;9.214;2023-03-14T09:09:38;14.30;94.40
40816;DHT22;26535;48.788;9.214;2023-03-14T09:12:04;14.10;94.40
40816;DHT22;26535;48.788;9.214;2023-03-14T09:14:30;14.10;94.80
40816;DHT22;26535;48.788;9.214;2023-03-14T09:16:57;14.20;94.80
40816;DHT22;26535;48.788;9.214;2023-03-14T09:19:23;14.10;95.20
40816;DHT22;26535;48.788;9.214;2023-03-14T09:21:49;14.10;94.90
40816;DHT22;26535;48.788;9.214;2023-03-14T09:24:16;14.10;95.40
40816;DHT22;26535;48.788;9.214;2023-03-14T09:26:41;14.10;95.70
40816;DHT22;26535;48.788;9.214;2023-03-14T09:29:07;14.10;96.00
40816;DHT22;26535;48.788;9.214;2023-03-14T09:31:33;14.20;95.60
40816;DHT22;26535;48.788;9.214;2023-03-14T09:33:59;14.20;95.90
40816;DHT22;26535;48.788;9.214;2023-03-14T09:36:25;14.30;95.70
40816;DHT22;26535;48.788;9.214;2023-03-14T09:38:51;14.40;95.00
40816;DHT22;26535;48.788;9.214;2023-03-14T09:41:27;14.30;95.80
40816;DHT22;26535;48.788;9.214;2023-03-14T09:44:05;14.50;95.50
40816;DHT22;26535;48.788;9.214;2023-03-14T09:46:35;14.60;95.50
40816;DHT22;26535;48.788;9.214;2023-03-14T09:49:02;14.60;95.60
40816;DHT22;26535;48.788;9.214;2023-03-14T09:51:33;14.40;95.00
40816;DHT22;26535;48.788;9.214;2023-03-14T09:54:00;14.30;95.20
40816;DHT22;26535;48.788;9.214;2023-03-14T09:56:29;14.10;95.20
40816;DHT22;26535;48.788;9.214;2023-03-14T09:58:59;14.10;94.70
40816;DHT22;26535;48.788;9.214;2023-03-14T10:01:29;13.90;95.00
40816;DHT22;26535;48.788;9.214;2023-03-14T10:03:57;14.00;94.60
40816;DHT22;26535;48.788;9.214;2023-03-14T10:06:26;14.00;94.70
40816;DHT22;26535;48.788;9.214;2023-03-14T10:08:54;13.90;94.70
40816;DHT22;26535;48.788;9.214;2023-03-14T10:11:21;14.00;94.70
40816;DHT22;26535;48.788;9.214;2023-03-14T10:14:08;13.90;95.00
40816;DHT22;26535;48.788;9.214;2023-03-14T10:16:37;13.90;95.30
40816;DHT22;26535;48.788;9.214;2023-03-14T10:19:10;14.00;95.40
40816;DHT22;26535;48.788;9.214;2023-03-14T10:21:41;13.90;95.30
40816;DHT22;26535;48.788;9.214;2023-03-14T10:24:19;13.90;95.00
40816;DHT22;26535;48.788;9.214;2023-03-14T10:26:48;13.90;94.80
40816;DHT22;26535;48.788;9.214;2023-03-14T10:29:14;14.00;95.00
40816;DHT22;26535;48.788;9.214;2023-03-14T10:32:03;14.30;94.10
40816;DHT22;26535;48.788;9.214;2023-03-14T10:34:39;14.50;93.90
40816;DHT22;26535;48.788;9.214;2023-03-14T10:37:23;14.70;93.00
40816;DHT22;26535;48.788;9.214;2023-03-14T10:39:53;14.80;92.80
40816;DHT22;26535;48.788;9.214;2023-03-14T10:42:26;14.80;92.90
40816;DHT22;26535;48.788;9.214;2023-03-14T10:45:25;14.60;93.00
40816;DHT22;26535;48.788;9.214;2023-03-14T10:47:53;14.80;92.70
40816;DHT22;26535;48.788;9.214;2023-03-14T10:50:28;14.80;92.90
40816;DHT22;26535;48.788;9.214;2023-03-14T10:52:55;15.00;92.60
40816;DHT22;26535;48.788;9.214;2023-03-14T10:55:24;14.90;92.20
40816;DHT22;26535;48.788;9.214;2023-03-14T10:57:50;14.70;92.70
40816;DHT22;26535;48.788;9.214;2023-03-14T11:00:21;14.60;92.90
40816;DHT22;26535;48.788;9.214;2023-03-14T11:03:01;14.60;93.70
40816;DHT22;26535;48.788;9.214;2023-03-14T11:05:34;14.60;93.50
40816;DHT22;26535;48.788;9.214;2023-03-14T11:08:11;14.30;93.80
40816;DHT22;26535;48.788;9.214;2023-03-14T11:10:39;14.10;95.90
40816;DHT22;26535;48.788;9.214;2023-03-14T11:13:34;13.50;98.10
40816;DHT22;26535;48.788;9.214;2023-03-14T11:22:08;13.20;97.80
40816;DHT22;26535;48.788;9.214;2023-03-14T11:30:13;12.50;99.90
40816;DHT22;26535;48.788;9.214;2023-03-14T11:32:47;12.10;99.90
40816;DHT22;26535;48.788;9.214;2023-03-14T11:37:55;11.80;99.90
40816;DHT22;26535;48.788;9.214;2023-03-14T11:40:27;11.70;99.90
40816;DHT22;26535;48.788;9.214;2023-03-14T11:45:39;11.80;99.90
40816;DHT22;26535;48.788;9.214;2023-03-14T11:48:35;11.90;99.90
40816;DHT22;26535;48.788;9.214;2023-03-14T11:51:07;12.00;99.90
40816;DHT22;26535;48.788;9.214;2023-03-14T11:56:14;11.90;99.90
40816;DHT22;26535;48.788;9.214;2023-03-14T11:58:50;11.90;99.90
40816;DHT22;26535;48.788;9.214;2023-03-14T12:01:21;11.80;99.90
40816;DHT22;26535;48.788;9.214;2023-03-14T12:04:19;11.70;99.90
40816;DHT22;26535;48.788;9.214;2023-03-14T12:06:49;11.80;99.90
40816;DHT22;26535;48.788;9.214;2023-03-14T12:09:20;12.00;99.90
40816;DHT22;26535;48.788;9.214;2023-03-14T12:11:54;12.20;99.90
40816;DHT22;26535;48.788;9.214;2023-03-14T12:14:30;12.40;99.90
40816;DHT22;26535;48.788;9.214;2023-03-14T12:17:03;12.40;99.90
40816;DHT22;26535;48.788;9.214;2023-03-14T12:19:31;12.30;99.90
40816;DHT22;26535;48.788;9.214;2023-03-14T12:22:27;12.20;99.90
40816;DHT22;26535;48.788;9.214;2023-03-14T12:25:18;12.30;99.90
40816;DHT22;26535;48.788;9.214;2023-03-14T12:28:50;12.30;99.90
40816;DHT22;26535;48.788;9.214;2023-03-14T12:30:50;12.80;99.90
40816;DHT22;26535;48.788;9.214;2023-03-14T12:36:04;14.20;98.10
40816;DHT22;26535;48.788;9.214;2023-03-14T12:43:40;14.60;94.20
40816;DHT22;26535;48.788;9.214;2023-03-14T12:48:34;15.40;91.10
40816;DHT22;26535;48.788;9.214;2023-03-14T12:51:05;16.00;89.30
40816;DHT22;26535;48.788;9.214;2023-03-14T12:59:33;17.60;75.00
40816;DHT22;26535;48.788;9.214;2023-03-14T13:07:02;17.10;72.80
40816;DHT22;26535;48.788;9.214;2023-03-14T13:14:33;16.50;74.70
40816;DHT22;26535;48.788;9.214;2023-03-14T13:17:01;15.80;74.70
40816;DHT22;26535;48.788;9.214;2023-03-14T13:19:29;14.80;76.50
40816;DHT22;26535;48.788;9.214;2023-03-14T13:22:03;14.80;77.30
40816;DHT22;26535;48.788;9.214;2023-03-14T13:24:33;14.90;76.60
40816;DHT22;26535;48.788;9.214;2023-03-14T13:27:00;14.90;76.50
40816;DHT22;26535;48.788;9.214;2023-03-14T13:32:12;13.80;77.40
40816;DHT22;26535;48.788;9.214;2023-03-14T13:34:41;13.20;76.70
40816;DHT22;26535;48.788;9.214;2023-03-14T13:37:16;12.70;78.50
40816;DHT22;26535;48.788;9.214;2023-03-14T13:39:42;12.40;78.70
40816;DHT22;26535;48.788;9.214;2023-03-14T13:42:14;12.30;79.30
40816;DHT22;26535;48.788;9.214;2023-03-14T13:44:40;12.20;78.70
40816;DHT22;26535;48.788;9.214;2023-03-14T13:47:12;12.00;79.40
40816;DHT22;26535;48.788;9.214;2023-03-14T13:49:40;12.20;78.60
40816;DHT22;26535;48.788;9.214;2023-03-14T13:54:56;12.60;75.30
40816;DHT22;26535;48.788;9.214;2023-03-14T13:57:23;12.50;75.80
40816;DHT22;26535;48.788;9.214;2023-03-14T14:00:04;12.50;76.10
40816;DHT22;26535;48.788;9.214;2023-03-14T14:02:38;12.20;74.60
40816;DHT22;26535;48.788;9.214;2023-03-14T14:05:04;11.60;74.20
40816;DHT22;26535;48.788;9.214;2023-03-14T14:07:30;11.40;75.10
40816;DHT22;26535;48.788;9.214;2023-03-14T14:09:58;11.30;75.90
40816;DHT22;26535;48.788;9.214;2023-03-14T14:12:29;11.20;75.10
40816;DHT22;26535;48.788;9.214;2023-03-14T14:15:12;11.30;75.10
40816;DHT22;26535;48.788;9.214;2023-03-14T14:17:51;11.10;75.90
40816;DHT22;26535;48.788;9.214;2023-03-14T14:20:44;11.10;75.80
40816;DHT22;26535;48.788;9.214;2023-03-14T14:23:15;11.30;73.60
40816;DHT22;26535;48.788;9.214;2023-03-14T14:25:43;11.30;72.30
40816;DHT22;26535;48.788;9.214;2023-03-14T14:28:31;11.30;72.30
40816;DHT22;26535;48.788;9.214;2023-03-14T14:33:42;11.10;72.30
40816;DHT22;26535;48.788;9.214;2023-03-14T14:36:29;10.90;72.30
40816;DHT22;26535;48.788;9.214;2023-03-14T14:39:00;10.80;73.20
40816;DHT22;26535;48.788;9.214;2023-03-14T14:41:30;10.80;73.50
40816;DHT22;26535;48.788;9.214;2023-03-14T14:43:57;10.90;73.90
40816;DHT22;26535;48.788;9.214;2023-03-14T14:46:23;10.80;73.80
40816;DHT22;26535;48.788;9.214;2023-03-14T14:48:56;10.90;74.50
40816;DHT22;26535;48.788;9.214;2023-03-14T14:51:25;10.90;74.10
40816;DHT22;26535;48.788;9.214;2023-03-14T14:54:04;10.80;74.30
40816;DHT22;26535;48.788;9.214;2023-03-14T14:56:35;10.70;74.10
40816;DHT22;26535;48.788;9.214;2023-03-14T14:59:02;10.60;74.00
40816;DHT22;26535;48.788;9.214;2023-03-14T15:01:38;10.50;74.90
40816;DHT22;26535;48.788;9.214;2023-03-14T15:04:11;10.40;75.10
40816;DHT22;26535;48.788;9.214;2023-03-14T15:06:39;10.50;75.30
40816;DHT22;26535;48.788;9.214;2023-03-14T15:09:10;10.60;75.30
40816;DHT22;26535;48.788;9.214;2023-03-14T15:11:37;10.80;74.20
40816;DHT22;26535;48.788;9.214;2023-03-14T15:14:03;10.90;74.20
40816;DHT22;26535;48.788;9.214;2023-03-14T15:16:30;11.10;73.80
40816;DHT22;26535;48.788;9.214;2023-03-14T15:18:58;11.60;73.40
40816;DHT22;26535;48.788;9.214;2023-03-14T15:21:25;11.70;72.40
40816;DHT22;26535;48.788;9.214;2023-03-14T15:23:51;11.80;72.60
40816;DHT22;26535;48.788;9.214;2023-03-14T15:26:20;12.70;71.60
40816;DHT22;26535;48.788;9.214;2023-03-14T15:28:46;15.20;68.90
40816;DHT22;26535;48.788;9.214;2023-03-14T15:31:13;17.20;62.50
40816;DHT22;26535;48.788;9.214;2023-03-14T15:33:40;17.20;61.80
40816;DHT22;26535;48.788;9.214;2023-03-14T15:36:19;16.90;61.90
40816;DHT22;26535;48.788;9.214;2023-03-14T15:38:46;16.30;61.90
40816;DHT22;26535;48.788;9.214;2023-03-14T15:41:11;15.40;63.70
40816;DHT22;26535;48.788;9.214;2023-03-14T15:43:37;14.30;65.60
40816;DHT22;26535;48.788;9.214;2023-03-14T15:46:03;14.60;66.80
40816;DHT22;26535;48.788;9.214;2023-03-14T15:48:31;14.30;66.10
40816;DHT22;26535;48.788;9.214;2023-03-14T15:50:57;14.60;66.50
40816;DHT22;26535;48.788;9.214;2023-03-14T15:53:23;15.10;65.10
40816;DHT22;26535;48.788;9.214;2023-03-14T15:55:48;14.50;65.90
40816;DHT22;26535;48.788;9.214;2023-03-14T15:58:16;15.50;64.10
40816;DHT22;26535;48.788;9.214;2023-03-14T16:00:42;16.50;62.80
40816;DHT22;26535;48.788;9.214;2023-03-14T16:03:08;17.70;60.50
40816;DHT22;26535;48.788;9.214;2023-03-14T16:05:34;18.00;60.10
40816;DHT22;26535;48.788;9.214;2023-03-14T16:07:59;18.20;59.10
40816;DHT22;26535;48.788;9.214;2023-03-14T16:10:27;18.90;58.40
40816;DHT22;26535;48.788;9.214;2023-03-14T16:12:52;18.30;58.40
40816;DHT22;26535;48.788;9.214;2023-03-14T16:15:18;16.60;60.40
40816;DHT22;26535;48.788;9.214;2023-03-14T16:17:44;15.10;63.50
40816;DHT22;26535;48.788;9.214;2023-03-14T16:20:10;14.00;65.80
40816;DHT22;26535;48.788;9.214;2023-03-14T16:22:36;13.10;67.90
40816;DHT22;26535;48.788;9.214;2023-03-14T16:25:06;12.90;69.00
40816;DHT22;26535;48.788;9.214;2023-03-14T16:27:32;12.70;69.50
40816;DHT22;26535;48.788;9.214;2023-03-14T16:29:58;12.40;69.70
40816;DHT22;26535;48.788;9.214;2023-03-14T16:32:27;12.20;71.00
40816;DHT22;26535;48.788;9.214;2023-03-14T16:34:53;12.60;71.10
40816;DHT22;26535;48.788;9.214;2023-03-14T16:37:19;12.60;70.00
40816;DHT22;26535;48.788;9.214;2023-03-14T16:39:49;12.20;72.20
40816;DHT22;26535;48.788;9.214;2023-03-14T16:42:18;11.60;72.60
40816;DHT22;26535;48.788;9.214;2023-03-14T16:44:44;11.20;74.10
40816;DHT22;26535;48.788;9.214;2023-03-14T16:47:10;11.00;74.90
40816;DHT22;26535;48.788;9.214;2023-03-14T16:49:36;10.60;75.80
40816;DHT22;26535;48.788;9.214;2023-03-14T16:52:02;10.60;76.30
40816;DHT22;26535;48.788;9.214;2023-03-14T16:54:27;10.40;76.70
40816;DHT22;26535;48.788;9.214;2023-03-14T16:56:53;10.30;77.40
40816;DHT22;26535;48.788;9.214;2023-03-14T16:59:19;10.20;77.80
40816;DHT22;26535;48.788;9.214;2023-03-14T17:01:45;10.10;78.30
40816;DHT22;26535;48.788;9.214;2023-03-14T17:04:11;10.00;78.90
40816;DHT22;26535;48.788;9.214;2023-03-14T17:06:42;10.10;79.10
40816;DHT22;26535;48.788;9.214;2023-03-14T17:09:15;10.00;78.70
40816;DHT22;26535;48.788;9.214;2023-03-14T17:11:41;10.00;79.10
40816;DHT22;26535;48.788;9.214;2023-03-14T17:14:07;9.90;79.10
40816;DHT22;26535;48.788;9.214;2023-03-14T17:16:32;9.90;79.70
40816;DHT22;26535;48.788;9.214;2023-03-14T17:18:58;9.80;79.50
40816;DHT22;26535;48.788;9.214;2023-03-14T17:21:24;9.80;80.40
40816;DHT22;26535;48.788;9.214;2023-03-14T17:23:50;9.80;80.60
40816;DHT22;26535;48.788;9.214;2023-03-14T17:26:18;9.80;81.40
40816;DHT22;26535;48.788;9.214;2023-03-14T17:28:45;9.60;86.70
40816;DHT22;26535;48.788;9.214;2023-03-14T17:31:17;9.30;90.10
40816;DHT22;26535;48.788;9.214;2023-03-14T17:33:44;9.10;91.00
40816;DHT22;26535;48.788;9.214;2023-03-14T17:36:10;8.90;91.90
40816;DHT22;26535;48.788;9.214;2023-03-14T17:38:38;8.80;93.00
40816;DHT22;26535;48.788;9.214;2023-03-14T17:41:12;8.60;94.80
40816;DHT22;26535;48.788;9.214;2023-03-14T17:43:40;8.40;95.80
40816;DHT22;26535;48.788;9.214;2023-03-14T17:46:08;8.20;97.10
40816;DHT22;26535;48.788;9.214;2023-03-14T17:48:47;8.00;97.60
40816;DHT22;26535;48.788;9.214;2023-03-14T17:51:16;7.80;99.30
40816;DHT22;26535;48.788;9.214;2023-03-14T17:53:42;7.70;99.90
40816;DHT22;26535;48.788;9.214;2023-03-14T17:56:08;7.60;99.90
40816;DHT22;26535;48.788;9.214;2023-03-14T17:58:34;7.60;99.90
40816;DHT22;26535;48.788;9.214;2023-03-14T18:01:12;7.70;99.90
40816;DHT22;26535;48.788;9.214;2023-03-14T18:03:38;7.70;99.90
40816;DHT22;26535;48.788;9.214;2023-03-14T18:06:05;7.70;99.90
40816;DHT22;26535;48.788;9.214;2023-03-14T18:08:31;7.70;99.90
40816;DHT22;26535;48.788;9.214;2023-03-14T18:10:57;7.60;99.90
40816;DHT22;26535;48.788;9.214;2023-03-14T18:13:22;7.70;99.90
40816;DHT22;26535;48.788;9.214;2023-03-14T18:15:48;7.70;99.90
40816;DHT22;26535;48.788;9.214;2023-03-14T18:18:14;7.70;99.90
40816;DHT22;26535;48.788;9.214;2023-03-14T18:20:40;7.10;99.90
40816;DHT22;26535;48.788;9.214;2023-03-14T18:23:05;6.30;99.90
40816;DHT22;26535;48.788;9.214;2023-03-14T18:25:32;6.00;99.90
40816;DHT22;26535;48.788;9.214;2023-03-14T18:27:57;5.90;99.90
40816;DHT22;26535;48.788;9.214;2023-03-14T18:30:23;5.70;99.90
40816;DHT22;26535;48.788;9.214;2023-03-14T18:32:49;5.60;99.90
40816;DHT22;26535;48.788;9.214;2023-03-14T18:35:15;5.60;99.90
40816;DHT22;26535;48.788;9.214;2023-03-14T18:37:41;5.60;99.90
40816;DHT22;26535;48.788;9.214;2023-03-14T18:40:07;5.60;99.90
40816;DHT22;26535;48.788;9.214;2023-03-14T18:42:34;5.50;99.90
40816;DHT22;26535;48.788;9.214;2023-03-14T18:45:00;5.50;99.90
40816;DHT22;26535;48.788;9.214;2023-03-14T18:47:26;5.40;99.90
40816;DHT22;26535;48.788;9.214;2023-03-14T18:49:52;5.40;99.90
40816;DHT22;26535;48.788;9.214;2023-03-14T18:52:17;5.30;99.90
40816;DHT22;26535;48.788;9.214;2023-03-14T18:54:43;5.30;99.90
40816;DHT22;26535;48.788;9.214;2023-03-14T18:57:09;5.30;99.90
40816;DHT22;26535;48.788;9.214;2023-03-14T18:59:34;5.30;99.90
40816;DHT22;26535;48.788;9.214;2023-03-14T19:02:00;5.50;99.90
40816;DHT22;26535;48.788;9.214;2023-03-14T19:04:26;5.60;99.90
40816;DHT22;26535;48.788;9.214;2023-03-14T19:06:51;5.60;99.90
40816;DHT22;26535;48.788;9.214;2023-03-14T19:09:19;5.70;99.90
40816;DHT22;26535;48.788;9.214;2023-03-14T19:11:44;5.60;99.90
40816;DHT22;26535;48.788;9.214;2023-03-14T19:14:10;5.70;99.90
40816;DHT22;26535;48.788;9.214;2023-03-14T19:16:40;5.70;99.90
40816;DHT22;26535;48.788;9.214;2023-03-14T19:19:06;5.70;99.90
40816;DHT22;26535;48.788;9.214;2023-03-14T19:21:33;5.80;99.90
40816;DHT22;26535;48.788;9.214;2023-03-14T19:23:59;5.80;99.90
40816;DHT22;26535;48.788;9.214;2023-03-14T19:26:25;5.80;99.90
40816;DHT22;26535;48.788;9.214;2023-03-14T19:28:54;5.90;99.90
40816;DHT22;26535;48.788;9.214;2023-03-14T19:31:19;6.00;99.90
40816;DHT22;26535;48.788;9.214;2023-03-14T19:33:45;6.00;99.90
40816;DHT22;26535;48.788;9.214;2023-03-14T19:36:26;6.00;99.90
40816;DHT22;26535;48.788;9.214;2023-03-14T19:38:53;6.00;99.90
40816;DHT22;26535;48.788;9.214;2023-03-14T19:41:20;6.00;99.90
40816;DHT22;26535;48.788;9.214;2023-03-14T19:43:46;6.00;99.90
40816;DHT22;26535;48.788;9.214;2023-03-14T19:46:12;6.20;99.90
40816;DHT22;26535;48.788;9.214;2023-03-14T19:48:38;6.20;99.90
40816;DHT22;26535;48.788;9.214;2023-03-14T19:51:04;6.10;99.90
40816;DHT22;26535;48.788;9.214;2023-03-14T19:53:29;6.00;99.90
40816;DHT22;26535;48.788;9.214;2023-03-14T19:55:56;6.00;99.90
40816;DHT22;26535;48.788;9.214;2023-03-14T19:58:22;6.00;99.90
40816;DHT22;26535;48.788;9.214;2023-03-14T20:00:48;5.90;99.90
40816;DHT22;26535;48.788;9.214;2023-03-14T20:03:14;6.00;99.90
40816;DHT22;26535;48.788;9.214;2023-03-14T20:05:40;6.00;99.90
40816;DHT22;26535;48.788;9.214;2023-03-14T20:08:09;6.00;99.90
40816;DHT22;26535;48.788;9.214;2023-03-14T20:10:35;6.00;99.90
40816;DHT22;26535;48.788;9.214;2023-03-14T20:13:01;6.10;99.90
40816;DHT22;26535;48.788;9.214;2023-03-14T20:15:27;6.10;99.90
40816;DHT22;26535;48.788;9.214;2023-03-14T20:17:52;6.20;99.90
40816;DHT22;26535;48.788;9.214;2023-03-14T20:20:19;6.20;99.90
40816;DHT22;26535;48.788;9.214;2023-03-14T20:22:46;6.20;99.90
40816;DHT22;26535;48.788;9.214;2023-03-14T20:25:15;6.20;99.90
40816;DHT22;26535;48.788;9.214;2023-03-14T20:27:48;6.20;99.90
40816;DHT22;26535;48.788;9.214;2023-03-14T20:30:16;6.20;99.90
40816;DHT22;26535;48.788;9.214;2023-03-14T20:32:43;6.20;99.90
40816;DHT22;26535;48.788;9.214;2023-03-14T20:35:14;6.20;99.90
40816;DHT22;26535;48.788;9.214;2023-03-14T20:37:52;6.20;99.90
40816;DHT22;26535;48.788;9.214;2023-03-14T20:40:19;6.20;99.90
40816;DHT22;26535;48.788;9.214;2023-03-14T20:42:45;6.30;99.90
40816;DHT22;26535;48.788;9.214;2023-03-14T20:45:11;6.30;99.90
40816;DHT22;26535;48.788;9.214;2023-03-14T20:47:37;6.30;99.90
40816;DHT22;26535;48.788;9.214;2023-03-14T20:50:03;6.30;99.90
40816;DHT22;26535;48.788;9.214;2023-03-14T20:52:29;6.40;99.90
40816;DHT22;26535;48.788;9.214;2023-03-14T20:54:55;6.40;99.90
40816;DHT22;26535;48.788;9.214;2023-03-14T20:57:21;6.30;99.90
40816;DHT22;26535;48.788;9.214;2023-03-14T20:59:46;6.40;99.90
40816;DHT22;26535;48.788;9.214;2023-03-14T21:02:12;6.30;99.90
40816;DHT22;26535;48.788;9.214;2023-03-14T21:04:38;6.30;99.90
40816;DHT22;26535;48.788;9.214;2023-03-14T21:07:04;6.40;99.90
40816;DHT22;26535;48.788;9.214;2023-03-14T21:09:30;6.40;99.90
40816;DHT22;26535;48.788;9.214;2023-03-14T21:11:56;6.40;99.90
40816;DHT22;26535;48.788;9.214;2023-03-14T21:14:21;6.40;99.90
40816;DHT22;26535;48.788;9.214;2023-03-14T21:16:48;6.40;99.90
40816;DHT22;26535;48.788;9.214;2023-03-14T21:19:15;6.40;99.90
40816;DHT22;26535;48.788;9.214;2023-03-14T21:21:41;6.40;99.90
40816;DHT22;26535;48.788;9.214;2023-03-14T21:24:07;6.50;99.90
40816;DHT22;26535;48.788;9.214;2023-03-14T21:26:33;6.50;99.90
40816;DHT22;26535;48.788;9.214;2023-03-14T21:28:59;6.50;99.90
40816;DHT22;26535;48.788;9.214;2023-03-14T21:31:29;6.60;99.90
40816;DHT22;26535;48.788;9.214;2023-03-14T21:33:54;6.60;99.90
40816;DHT22;26535;48.788;9.214;2023-03-14T21:36:20;6.60;99.90
40816;DHT22;26535;48.788;9.214;2023-03-14T21:38:46;6.50;99.90
40816;DHT22;26535;48.788;9.214;2023-03-14T21:41:12;6.50;99.90
40816;DHT22;26535;48.788;9.214;2023-03-14T21:43:40;6.40;99.90
40816;DHT22;26535;48.788;9.214;2023-03-14T21:46:06;6.40;99.90
40816;DHT22;26535;48.788;9.214;2023-03-14T21:48:32;6.30;99.90
40816;DHT22;26535;48.788;9.214;2023-03-14T21:50:58;6.30;99.90
40816;DHT22;26535;48.788;9.214;2023-03-14T21:53:26;6.30;99.90
40816;DHT22;26535;48.788;9.214;2023-03-14T21:55:54;6.20;99.90
40816;DHT22;26535;48.788;9.214;2023-03-14T21:58:20;6.10;99.90
40816;DHT22;26535;48.788;9.214;2023-03-14T22:00:46;6.10;99.90
40816;DHT22;26535;48.788;9.214;2023-03-14T22:03:15;6.00;99.90
40816;DHT22;26535;48.788;9.214;2023-03-14T22:05:43;5.90;99.90
40816;DHT22;26535;48.788;9.214;2023-03-14T22:08:09;5.80;99.90
40816;DHT22;26535;48.788;9.214;2023-03-14T22:10:35;5.70;99.90